Geraldine, AL

11:42 AM CST on January 31, 2015 (GMT -0600)
Rock Creek Bloodhounds | Change Station
CLOSE
Current Station
Personal Weather Station
Location: Fort Payne, AL
Elevation: 1162 ft
Nearby Weather Stations

Elev 1162 ft 34.41 °N, 85.88 °W | Updated 2 seconds ago

Partly Cloudy
Partly Cloudy
48.6 °F
Feels Like 49 °F
N
0.0
Wind Variable Wind from NE
Gusts 4.0 mph

Today
High -- | Low -- °F
--% Chance of Precip.
Yesterday
High -- | Low -- °F
Precip. -- in
6:42 AM 5:12 PM
Waxing Gibbous, 90% visible
Pressure 30.34 in
Visibility 10.0 miles
Clouds Clear
Windchill 49 °F
Dew Point 27 °F
Humidity 43%
Rainfall 0.00 in
Snow Depth Not available.
UV 5 out of 12
Pollen 2.90 out of 12
Air Quality Not available.
Flu Activity Not available.
METAR K8A0 311715Z AUTO 07003KT 10SM CLR 08/M02 A3034 RMK AO2

More Conditions Fewer Conditions

Pressure 30.34 in
Visibility 10.0 miles
Clouds Clear
Windchill 49 °F
Dew Point 27 °F
Humidity 43%
Rainfall 0.00 in
Snow Depth Not available.
UV 5 out of 12
Pollen 2.90 out of 12
Air Quality Not available.
Flu Activity Not available.
METAR K8A0 311715Z AUTO 07003KT 10SM CLR 08/M02 A3034 RMK AO2

More Conditions Fewer Conditions

10-Day Weather Forecast

Almanac

Astronomy

Jan. 31, 2015 Rise Set
Actual Time
Civil Twilight
Nautical Twilight
Astronomical Twilight
Moon
Length of Visible Light
Length of Day
Tomorrow will be .
, % of the Moon is Illuminated

Today's Extremes

State Highs State Lows

Community

WunderPhotos

Upload Photos

1,792,136 photos uploaded!

WunderBlogs® & News

Nearby

Air Quality

  Air Quality AQ Index Pollutant
Not available.

Snow Depth

Station Depth Elevation

Earthquake Activity

City Distance Mag. Time & Date
Minimum magnitude displayed is 2.5.

Coastal Water Temperatures

Place Temperature

Nearby Weather Stations